Time;durP1;ratioP1;P1;durP2;ratioP2;P2;SDS_P1;SDS_P2;PMS_P1;PMS_P2;Temp;Humidity;BMP_temperature;BMP_pressure;BME280_temperature;BME280_humidity;BME280_pressure;Samples;Min_cycle;Max_cycle;Signal;HPM_P1;HPM_P2
2022/04/23 00:01:42;;;;;;;5.70;2.50;;;10.00;99.90;;;;;;5037250;28;20222;-84
2022/04/23 00:04:12;;;;;;;4.27;3.47;;;10.10;99.90;;;;;;5029781;28;20804;-86
2022/04/23 00:06:38;;;;;;;6.27;2.60;;;10.10;99.90;;;;;;5033976;28;20801;-84
2022/04/23 00:09:04;;;;;;;3.00;1.73;;;10.20;99.90;;;;;;5030191;28;20660;-85
2022/04/23 00:11:30;;;;;;;8.23;3.50;;;10.20;99.90;;;;;;5033499;28;20191;-85
2022/04/23 00:13:56;;;;;;;2.30;2.00;;;10.20;99.90;;;;;;5048458;28;20252;-84
2022/04/23 00:16:23;;;;;;;2.30;1.47;;;10.30;99.90;;;;;;5034273;28;20674;-84
2022/04/23 00:18:50;;;;;;;2.93;2.60;;;10.20;99.90;;;;;;5034266;28;20368;-85
2022/04/23 00:21:15;;;;;;;3.37;2.53;;;10.10;99.90;;;;;;5050254;28;20253;-87
2022/04/23 00:23:41;;;;;;;5.67;3.03;;;10.10;99.90;;;;;;5032095;28;20301;-84
2022/04/23 00:26:07;;;;;;;4.67;3.17;;;10.10;99.90;;;;;;5024973;28;20945;-85
2022/04/23 00:28:33;;;;;;;4.27;2.07;;;10.00;99.90;;;;;;5034126;28;20214;-85
2022/04/23 00:30:58;;;;;;;3.33;2.90;;;10.00;99.90;;;;;;5031819;28;20232;-85
2022/04/23 00:33:24;;;;;;;6.20;3.13;;;10.10;99.90;;;;;;5032477;28;20233;-84
2022/04/23 00:35:50;;;;;;;3.87;2.30;;;10.10;99.90;;;;;;5034800;28;20198;-85
2022/04/23 00:38:16;;;;;;;7.00;3.43;;;10.00;99.90;;;;;;5025279;28;20625;-86
2022/04/23 00:40:43;;;;;;;3.83;3.53;;;10.10;99.90;;;;;;5032594;28;20316;-86
2022/04/23 00:43:24;;;;;;;9.17;2.77;;;10.10;99.90;;;;;;5034691;28;20291;-84
2022/04/23 00:45:50;;;;;;;3.20;2.93;;;10.10;99.90;;;;;;5034218;28;20237;-84
2022/04/23 00:48:16;;;;;;;3.33;2.43;;;10.10;99.90;;;;;;5034121;28;20585;-86
2022/04/23 00:50:42;;;;;;;2.57;2.23;;;10.10;99.90;;;;;;5034421;28;20186;-87
2022/04/23 00:53:09;;;;;;;5.20;3.30;;;10.00;99.90;;;;;;5034094;28;20222;-85
2022/04/23 00:55:36;;;;;;;3.70;2.47;;;10.00;99.90;;;;;;5034418;28;20318;-87
2022/04/23 00:58:02;;;;;;;4.13;2.83;;;10.00;99.90;;;;;;5032689;28;20303;-87
2022/04/23 01:00:28;;;;;;;5.70;2.50;;;10.00;99.90;;;;;;5032789;28;20633;-86
2022/04/23 01:02:55;;;;;;;3.17;2.43;;;10.00;99.90;;;;;;5034011;28;20340;-85
2022/04/23 01:05:24;;;;;;;7.23;4.53;;;9.90;99.90;;;;;;5035357;28;20217;-86
2022/04/23 01:07:52;;;;;;;6.87;3.20;;;9.90;99.90;;;;;;5033707;28;20230;-86
2022/04/23 01:10:19;;;;;;;2.50;2.20;;;9.90;99.90;;;;;;5034369;28;20222;-86
2022/04/23 01:12:46;;;;;;;2.73;2.43;;;9.90;99.90;;;;;;5034899;28;20563;-87
2022/04/23 01:15:14;;;;;;;6.07;2.33;;;9.80;99.90;;;;;;5032239;28;20617;-87
2022/04/23 01:17:42;;;;;;;3.37;3.07;;;9.80;99.90;;;;;;5051931;28;20190;-86
2022/04/23 01:20:15;;;;;;;2.90;2.70;;;9.80;99.90;;;;;;5047704;28;20219;-86
2022/04/23 01:22:43;;;;;;;4.13;3.20;;;9.80;99.90;;;;;;5048504;28;20222;-86
2022/04/23 01:25:13;;;;;;;6.00;3.60;;;9.70;99.90;;;;;;5049494;28;20226;-87
2022/04/23 01:27:41;;;;;;;4.17;2.70;;;9.70;99.90;;;;;;5034529;28;20698;-86
2022/04/23 01:30:10;;;;;;;5.30;3.63;;;9.70;99.90;;;;;;5035480;28;20563;-86
2022/04/23 01:32:36;;;;;;;3.23;2.93;;;9.60;99.90;;;;;;5034979;28;20182;-86
2022/04/23 01:35:03;;;;;;;3.60;3.00;;;9.60;99.90;;;;;;5034173;28;20222;-87
2022/04/23 01:37:29;;;;;;;3.20;2.80;;;9.60;99.90;;;;;;5034674;28;20291;-87
2022/04/23 01:39:55;;;;;;;5.33;4.27;;;9.50;99.90;;;;;;5034122;28;20222;-85
2022/04/23 01:42:20;;;;;;;4.80;3.10;;;9.50;99.90;;;;;;5042007;28;20313;-85
2022/04/23 01:44:51;;;;;;;6.77;2.67;;;9.50;99.90;;;;;;5049771;28;20325;-85
2022/04/23 01:47:17;;;;;;;4.07;3.67;;;9.60;99.90;;;;;;5033369;28;20222;-86
2022/04/23 01:49:44;;;;;;;3.97;2.80;;;9.60;99.90;;;;;;5032562;28;20229;-86
2022/04/23 01:52:11;;;;;;;4.73;3.33;;;9.60;99.90;;;;;;5032999;28;20218;-86
2022/04/23 01:54:37;;;;;;;7.43;3.60;;;9.50;99.90;;;;;;5035601;28;20218;-87
2022/04/23 01:57:03;;;;;;;3.97;2.67;;;9.50;99.90;;;;;;5033935;28;20943;-85
2022/04/23 01:59:30;;;;;;;5.73;4.40;;;9.50;99.90;;;;;;5031701;28;20207;-86
2022/04/23 02:01:56;;;;;;;3.13;2.80;;;9.40;99.90;;;;;;5050386;28;20254;-88
2022/04/23 02:04:22;;;;;;;4.07;3.67;;;9.40;99.90;;;;;;5051392;28;20237;-86
2022/04/23 02:06:48;;;;;;;4.83;3.33;;;9.40;99.90;;;;;;5033784;28;20219;-85
2022/04/23 02:09:14;;;;;;;3.30;2.60;;;9.40;99.90;;;;;;5048924;28;20246;-86
2022/04/23 02:11:40;;;;;;;3.20;2.80;;;9.40;99.90;;;;;;5051356;28;20199;-87
2022/04/23 02:14:06;;;;;;;5.53;3.37;;;9.40;99.90;;;;;;5034640;28;20242;-86
2022/04/23 02:16:33;;;;;;;2.90;2.63;;;9.40;99.90;;;;;;5037703;28;20210;-86
2022/04/23 02:18:59;;;;;;;4.93;4.50;;;9.50;99.90;;;;;;5037565;28;20249;-87
2022/04/23 02:21:25;;;;;;;3.37;2.87;;;9.50;99.90;;;;;;5036667;28;20500;-88
2022/04/23 02:23:53;;;;;;;6.10;3.77;;;9.40;99.90;;;;;;5034867;28;20267;-86
2022/04/23 02:26:20;;;;;;;4.10;3.20;;;9.40;99.90;;;;;;5044607;28;20369;-85
2022/04/23 02:28:55;;;;;;;7.33;4.33;;;9.40;99.90;;;;;;5051293;28;20667;-86
2022/04/23 02:31:20;;;;;;;4.00;3.57;;;9.50;99.90;;;;;;5053743;28;20214;-85
2022/04/23 02:33:46;;;;;;;2.33;2.17;;;9.60;99.90;;;;;;5036722;28;20694;-88
2022/04/23 02:36:12;;;;;;;5.23;3.73;;;9.60;99.90;;;;;;5037507;28;20218;-87
2022/04/23 02:38:41;;;;;;;4.13;3.50;;;9.60;99.90;;;;;;5037382;28;20257;-86
2022/04/23 02:41:11;;;;;;;3.13;2.33;;;9.60;99.90;;;;;;5054002;28;20349;-88
2022/04/23 02:43:41;;;;;;;7.37;4.37;;;9.60;99.90;;;;;;5035709;28;20238;-87
2022/04/23 02:46:07;;;;;;;3.20;2.30;;;9.60;99.90;;;;;;5051741;28;20222;-86
2022/04/23 02:48:35;;;;;;;5.03;3.53;;;9.60;99.90;;;;;;5034241;28;20601;-85
2022/04/23 02:51:02;;;;;;;5.60;2.97;;;9.50;99.90;;;;;;5036455;28;20596;-88
2022/04/23 02:53:28;;;;;;;5.73;3.77;;;9.60;99.90;;;;;;5036396;28;20202;-87
2022/04/23 02:55:57;;;;;;;5.30;4.13;;;9.60;99.90;;;;;;5036594;28;20621;-87
2022/04/23 02:58:26;;;;;;;4.97;3.67;;;9.60;99.90;;;;;;5051178;28;20653;-85
2022/04/23 03:00:53;;;;;;;6.43;3.13;;;9.50;99.90;;;;;;5035230;28;20230;-86
2022/04/23 03:03:19;;;;;;;4.97;4.17;;;9.50;99.90;;;;;;5052385;28;20218;-86
2022/04/23 03:05:45;;;;;;;5.00;4.60;;;9.50;99.90;;;;;;5028724;28;20313;-86
2022/04/23 03:08:12;;;;;;;6.90;3.90;;;9.40;99.90;;;;;;5038538;28;20384;-86
2022/04/23 03:10:41;;;;;;;4.07;3.33;;;9.40;99.90;;;;;;5037806;28;20763;-88
2022/04/23 03:13:08;;;;;;;3.03;2.50;;;9.40;99.90;;;;;;5035660;28;20444;-87
2022/04/23 03:15:35;;;;;;;4.27;3.10;;;9.40;99.90;;;;;;5037680;28;20222;-87
2022/04/23 03:18:12;;;;;;;5.03;4.27;;;9.30;99.90;;;;;;5036068;28;20324;-86
2022/04/23 03:20:41;;;;;;;5.37;3.93;;;9.30;99.90;;;;;;5044857;28;20185;-86
2022/04/23 03:23:07;;;;;;;6.73;4.40;;;9.30;99.90;;;;;;5038143;28;20225;-85
2022/04/23 03:25:33;;;;;;;3.80;3.47;;;9.30;99.90;;;;;;5034781;28;20244;-86
2022/04/23 03:28:00;;;;;;;6.23;3.23;;;9.30;99.90;;;;;;5035533;28;20237;-87
2022/04/23 03:30:26;;;;;;;5.57;4.30;;;9.20;99.90;;;;;;5044162;28;20283;-88
2022/04/23 03:32:53;;;;;;;5.13;3.93;;;9.20;99.90;;;;;;5032255;28;20317;-86
2022/04/23 03:35:19;;;;;;;3.17;2.87;;;9.20;99.90;;;;;;5036165;28;20199;-87
2022/04/23 03:37:45;;;;;;;4.97;4.03;;;9.20;99.90;;;;;;5033894;28;20316;-86
2022/04/23 03:40:11;;;;;;;3.47;3.17;;;9.20;99.90;;;;;;5050095;28;20293;-86
2022/04/23 03:42:38;;;;;;;5.57;4.13;;;9.20;99.90;;;;;;5036247;28;20222;-86
2022/04/23 03:45:05;;;;;;;5.30;3.30;;;9.20;99.90;;;;;;5034528;28;20242;-84
2022/04/23 03:47:32;;;;;;;5.27;2.53;;;9.20;99.90;;;;;;5034884;28;20296;-86
2022/04/23 03:50:06;;;;;;;2.27;2.07;;;9.10;99.90;;;;;;5034674;28;20593;-86
2022/04/23 03:52:33;;;;;;;8.00;3.87;;;9.10;99.90;;;;;;5034192;28;20577;-87
2022/04/23 03:54:59;;;;;;;5.00;3.83;;;9.10;99.90;;;;;;5035249;28;20588;-87
2022/04/23 03:57:25;;;;;;;4.57;3.97;;;9.10;99.90;;;;;;5035436;28;20932;-87
2022/04/23 03:59:51;;;;;;;5.90;3.10;;;9.10;99.90;;;;;;5026730;28;20702;-85
2022/04/23 04:02:17;;;;;;;6.73;3.90;;;9.10;99.90;;;;;;5050837;28;20251;-86
2022/04/23 04:04:43;;;;;;;2.60;1.70;;;9.00;99.90;;;;;;5052583;28;20245;-85
2022/04/23 04:07:09;;;;;;;3.47;2.80;;;9.00;99.90;;;;;;5050792;28;20730;-86
2022/04/23 04:09:35;;;;;;;3.87;3.47;;;9.00;99.90;;;;;;5033894;28;20711;-87
2022/04/23 04:12:01;;;;;;;4.03;3.37;;;9.00;99.90;;;;;;5033966;28;20591;-85
2022/04/23 04:14:31;;;;;;;9.33;4.30;;;9.00;99.90;;;;;;5036274;28;20648;-84
2022/04/23 04:17:01;;;;;;;4.77;3.43;;;9.00;99.90;;;;;;5026813;28;20218;-86
2022/04/23 04:19:28;;;;;;;3.80;3.43;;;9.00;99.90;;;;;;5033365;28;20325;-86
2022/04/23 04:21:54;;;;;;;5.73;2.60;;;9.00;99.90;;;;;;5051660;28;20260;-87
2022/04/23 04:24:20;;;;;;;2.73;1.97;;;9.00;99.90;;;;;;5035185;28;20345;-85
2022/04/23 04:26:49;;;;;;;6.10;3.80;;;9.00;99.90;;;;;;5033714;28;20273;-83
2022/04/23 04:29:15;;;;;;;4.00;3.13;;;9.00;99.90;;;;;;5033392;28;20197;-85
2022/04/23 04:31:50;;;;;;;7.13;3.80;;;9.00;99.90;;;;;;5051486;28;20317;-86
2022/04/23 04:34:23;;;;;;;6.33;3.37;;;9.10;99.90;;;;;;5032282;28;20268;-86
2022/04/23 04:36:51;;;;;;;3.30;3.03;;;9.10;99.90;;;;;;5030313;28;20230;-85
2022/04/23 04:39:18;;;;;;;5.80;2.77;;;9.10;99.90;;;;;;5032637;28;20222;-84
2022/04/23 04:41:44;;;;;;;3.97;3.40;;;9.10;99.90;;;;;;5041538;28;20182;-85
2022/04/23 04:44:10;;;;;;;2.70;2.10;;;9.10;99.90;;;;;;5033122;28;20238;-86
2022/04/23 04:46:38;;;;;;;4.63;3.33;;;9.10;99.90;;;;;;5032316;28;20222;-85
2022/04/23 04:49:05;;;;;;;7.73;3.90;;;9.10;99.90;;;;;;5031112;28;20222;-86
2022/04/23 04:51:31;;;;;;;5.83;4.17;;;9.10;99.90;;;;;;5033256;28;20336;-85
2022/04/23 04:53:57;;;;;;;4.83;2.73;;;9.10;99.90;;;;;;5034536;28;20280;-87
2022/04/23 04:56:24;;;;;;;3.73;2.93;;;9.20;99.90;;;;;;5035003;28;21148;-86
2022/04/23 04:58:49;;;;;;;6.40;3.97;;;9.20;99.90;;;;;;5033516;28;20269;-84
2022/04/23 05:01:16;;;;;;;4.27;3.00;;;9.20;99.90;;;;;;5031436;28;20325;-84
2022/04/23 05:03:43;;;;;;;5.97;4.27;;;9.30;99.90;;;;;;5050577;28;20238;-86
2022/04/23 05:06:09;;;;;;;5.30;2.53;;;9.30;99.90;;;;;;5031117;28;20749;-84
2022/04/23 05:08:36;;;;;;;5.30;4.63;;;9.40;99.90;;;;;;5033920;28;20288;-88
2022/04/23 05:11:03;;;;;;;2.93;2.73;;;9.50;99.90;;;;;;5034295;28;20712;-85
2022/04/23 05:13:29;;;;;;;4.13;3.00;;;9.50;99.90;;;;;;5032425;28;20221;-84
2022/04/23 05:15:55;;;;;;;4.47;3.70;;;9.60;99.90;;;;;;5032901;28;20232;-86
2022/04/23 05:18:21;;;;;;;4.50;2.97;;;9.90;99.90;;;;;;5035670;28;20213;-84
2022/04/23 05:20:47;;;;;;;4.97;3.77;;;10.10;99.90;;;;;;5033661;28;20198;-87
2022/04/23 05:23:13;;;;;;;4.20;3.80;;;10.40;99.90;;;;;;5034612;28;20209;-83
2022/04/23 05:25:39;;;;;;;5.50;4.50;;;10.80;99.90;;;;;;5023582;28;20234;-84
2022/04/23 05:28:04;;;;;;;4.17;3.17;;;11.10;99.90;;;;;;5034590;28;20605;-85
2022/04/23 05:30:30;;;;;;;4.53;3.77;;;11.40;99.90;;;;;;5032450;28;20214;-86
2022/04/23 05:32:56;;;;;;;6.13;3.90;;;11.60;99.90;;;;;;5048618;28;20190;-83
2022/04/23 05:35:22;;;;;;;8.53;4.03;;;11.50;99.90;;;;;;5024513;28;20565;-83
2022/04/23 05:37:47;;;;;;;4.67;4.03;;;11.70;99.90;;;;;;5049422;28;20218;-85
2022/04/23 05:40:13;;;;;;;8.23;4.27;;;11.90;99.90;;;;;;5035675;28;20699;-83
2022/04/23 05:42:39;;;;;;;6.03;4.27;;;12.30;99.90;;;;;;5032612;28;20687;-85
2022/04/23 05:45:05;;;;;;;6.63;4.17;;;12.30;99.90;;;;;;5032599;28;20230;-84
2022/04/23 05:47:31;;;;;;;5.90;4.40;;;12.40;99.90;;;;;;5046815;28;20224;-83
2022/04/23 05:49:56;;;;;;;7.27;3.43;;;12.90;99.90;;;;;;5055096;28;20304;-83
2022/04/23 05:52:22;;;;;;;4.50;4.07;;;13.00;99.90;;;;;;5028129;28;20724;-84
2022/04/23 05:54:48;;;;;;;5.83;3.30;;;13.20;99.90;;;;;;5035539;28;20242;-85
2022/04/23 05:57:15;;;;;;;3.90;3.00;;;12.80;99.90;;;;;;5038453;28;20257;-84
2022/04/23 05:59:41;;;;;;;6.20;3.73;;;13.10;99.90;;;;;;5053100;28;20264;-83
2022/04/23 06:02:07;;;;;;;3.50;3.20;;;13.50;99.90;;;;;;5036298;28;20583;-82
2022/04/23 06:04:33;;;;;;;3.77;2.70;;;13.40;99.90;;;;;;5037256;28;20790;-82
2022/04/23 06:06:59;;;;;;;5.17;3.30;;;13.20;99.90;;;;;;5027848;28;20230;-87
2022/04/23 06:09:24;;;;;;;4.50;2.47;;;13.30;99.90;;;;;;5037222;28;20291;-84
2022/04/23 06:11:50;;;;;;;3.40;2.80;;;13.10;99.90;;;;;;5045451;28;20578;-84
2022/04/23 06:14:16;;;;;;;4.27;3.67;;;13.20;99.90;;;;;;5036542;28;20205;-87
2022/04/23 06:16:42;;;;;;;3.40;2.67;;;13.70;99.90;;;;;;5035324;28;20218;-86
2022/04/23 06:19:08;;;;;;;4.83;3.00;;;13.30;99.90;;;;;;5035611;28;20233;-87
2022/04/23 06:21:33;;;;;;;3.93;3.00;;;13.40;99.90;;;;;;5031194;28;20332;-84
2022/04/23 06:23:59;;;;;;;4.73;3.63;;;13.50;99.90;;;;;;5036668;28;20218;-85
2022/04/23 06:26:26;;;;;;;4.50;2.70;;;13.70;99.90;;;;;;5029424;28;20186;-87
2022/04/23 06:28:51;;;;;;;4.37;4.00;;;13.50;99.90;;;;;;5054192;28;20230;-85
2022/04/23 06:31:17;;;;;;;4.90;3.50;;;13.50;99.90;;;;;;5036648;28;20226;-87
2022/04/23 06:33:43;;;;;;;4.00;3.23;;;13.40;99.90;;;;;;5052196;28;20328;-87
2022/04/23 06:36:13;;;;;;;4.73;2.83;;;13.50;99.90;;;;;;5050772;28;20598;-88
2022/04/23 06:38:39;;;;;;;3.63;2.43;;;13.30;99.90;;;;;;5028673;28;20320;-86
2022/04/23 06:41:05;;;;;;;7.17;3.60;;;13.40;99.90;;;;;;5037216;28;20305;-87
2022/04/23 06:43:31;;;;;;;5.60;3.20;;;13.20;99.90;;;;;;5036667;28;20242;-84
2022/04/23 06:45:57;;;;;;;4.10;3.00;;;13.30;99.90;;;;;;5053477;28;20581;-84
2022/04/23 06:48:23;;;;;;;4.30;3.43;;;13.10;99.90;;;;;;5037676;28;20222;-83
2022/04/23 06:50:48;;;;;;;4.87;3.57;;;12.90;99.90;;;;;;5036092;28;20719;-87
2022/04/23 06:53:14;;;;;;;3.83;2.80;;;13.30;99.90;;;;;;5035628;28;20190;-84
2022/04/23 06:55:40;;;;;;;2.57;2.00;;;13.40;99.90;;;;;;5036797;28;20218;-84
2022/04/23 06:58:06;;;;;;;2.03;1.93;;;13.30;99.90;;;;;;5036836;28;20773;-82
2022/04/23 07:00:32;;;;;;;6.07;3.43;;;12.80;99.90;;;;;;5034569;28;20224;-84
2022/04/23 07:02:57;;;;;;;7.03;3.80;;;12.80;99.90;;;;;;5034809;28;20190;-87
2022/04/23 07:05:23;;;;;;;4.17;3.23;;;13.40;99.90;;;;;;5036903;28;20225;-86
2022/04/23 07:08:01;;;;;;;2.83;2.07;;;13.40;99.90;;;;;;5036043;28;20320;-89
2022/04/23 07:10:28;;;;;;;5.67;4.30;;;13.30;99.90;;;;;;5036702;28;20219;-88
2022/04/23 07:12:55;;;;;;;3.03;2.80;;;13.50;99.90;;;;;;5036223;28;20300;-85
2022/04/23 07:15:23;;;;;;;3.03;2.03;;;13.30;99.90;;;;;;5052088;28;20221;-83
2022/04/23 07:17:49;;;;;;;4.50;3.07;;;13.20;99.90;;;;;;5052404;28;20201;-82
2022/04/23 07:20:17;;;;;;;4.80;3.27;;;13.10;99.90;;;;;;5037022;28;20191;-85
2022/04/23 07:24:02;;;;;;;4.67;3.70;;;13.60;99.90;;;;;;5035995;28;20219;-85
2022/04/23 07:25:29;;;;;;;3.57;3.27;;;13.40;99.90;;;;;;5049417;28;20249;-85
2022/04/23 07:27:55;;;;;;;3.03;2.67;;;13.60;99.90;;;;;;5039573;28;20217;-87
2022/04/23 07:30:21;;;;;;;4.50;3.07;;;13.70;99.90;;;;;;5053244;28;20219;-85
2022/04/23 07:32:47;;;;;;;6.07;2.93;;;13.30;99.90;;;;;;5052457;28;20190;-82
2022/04/23 07:37:56;;;;;;;5.37;3.80;;;14.00;99.90;;;;;;5038227;28;20712;-84
2022/04/23 07:40:23;;;;;;;6.03;3.50;;;13.80;99.90;;;;;;5036706;28;20225;-86
2022/04/23 07:42:51;;;;;;;3.53;3.23;;;13.50;99.90;;;;;;5034885;28;20226;-90
2022/04/23 07:45:19;;;;;;;3.00;2.27;;;13.90;99.90;;;;;;5034596;28;20241;-90
2022/04/23 07:47:46;;;;;;;4.70;3.50;;;14.10;99.90;;;;;;5036975;28;20198;-88
2022/04/23 07:50:12;;;;;;;5.50;4.30;;;14.40;99.90;;;;;;5053342;28;20226;-88
2022/04/23 07:52:38;;;;;;;5.53;3.23;;;14.90;99.90;;;;;;5027546;28;20225;-87
2022/04/23 07:55:11;;;;;;;4.80;3.20;;;14.90;99.90;;;;;;5028680;28;20296;-90
2022/04/23 07:57:42;;;;;;;4.00;3.57;;;14.60;99.90;;;;;;5024158;28;20237;-86
2022/04/23 08:00:20;;;;;;;3.57;3.07;;;14.60;99.90;;;;;;5036736;28;20753;-89
2022/04/23 08:02:52;;;;;;;5.23;3.50;;;14.60;99.90;;;;;;5034900;28;20259;-90
2022/04/23 08:05:23;;;;;;;4.57;3.93;;;14.70;99.90;;;;;;5035692;28;20294;-90
2022/04/23 08:07:56;;;;;;;4.50;2.83;;;14.60;99.90;;;;;;5033143;28;20230;-89
2022/04/23 08:10:37;;;;;;;4.47;2.97;;;14.70;99.90;;;;;;5012051;28;20240;-85
2022/04/23 08:13:09;;;;;;;5.97;2.83;;;14.60;99.90;;;;;;5032526;28;20667;-90
2022/04/23 08:15:48;;;;;;;4.43;4.00;;;14.30;99.90;;;;;;5015362;28;20409;-87
2022/04/23 08:18:47;;;;;;;4.13;3.30;;;14.60;99.90;;;;;;5019891;28;20194;-84
2022/04/23 08:21:18;;;;;;;4.93;3.27;;;14.40;99.90;;;;;;5050829;28;20186;-85
2022/04/23 08:23:49;;;;;;;4.40;3.20;;;14.60;99.90;;;;;;5033021;28;20241;-88
2022/04/23 08:26:21;;;;;;;5.23;4.73;;;14.30;99.90;;;;;;5034667;28;20179;-84
2022/04/23 08:31:43;;;;;;;3.47;2.93;;;14.50;99.90;;;;;;5047415;28;20214;-85
2022/04/23 08:34:15;;;;;;;3.23;2.67;;;14.50;99.90;;;;;;5041521;28;20214;-89
2022/04/23 08:36:49;;;;;;;4.77;3.93;;;14.50;99.90;;;;;;5032828;28;20225;-88
2022/04/23 08:39:20;;;;;;;2.30;2.17;;;14.60;99.90;;;;;;5022329;28;20224;-83
2022/04/23 08:41:51;;;;;;;5.40;2.97;;;15.00;99.90;;;;;;5034138;28;20191;-84
2022/04/23 08:44:22;;;;;;;6.33;4.23;;;15.10;99.90;;;;;;5036868;28;20238;-86
2022/04/23 08:46:54;;;;;;;7.03;3.63;;;15.00;99.90;;;;;;5034793;28;20287;-84
2022/04/23 08:49:35;;;;;;;4.83;3.40;;;15.00;99.90;;;;;;5048826;28;20249;-83
2022/04/23 08:52:18;;;;;;;5.67;4.37;;;15.10;99.90;;;;;;5050106;28;20236;-82
2022/04/23 08:54:50;;;;;;;3.73;2.90;;;15.10;99.90;;;;;;5049549;28;20245;-85
2022/04/23 08:57:21;;;;;;;5.70;2.87;;;15.00;99.90;;;;;;5033525;28;20214;-84
2022/04/23 08:59:56;;;;;;;2.63;2.43;;;15.20;99.90;;;;;;5034733;28;20179;-86
2022/04/23 09:02:28;;;;;;;2.00;1.80;;;15.00;99.90;;;;;;5034272;28;20170;-86
2022/04/23 09:04:59;;;;;;;3.73;2.70;;;15.00;99.90;;;;;;5034687;28;20230;-83
2022/04/23 09:07:30;;;;;;;6.27;3.00;;;15.20;99.90;;;;;;5048942;28;20206;-84
2022/04/23 09:10:01;;;;;;;3.57;2.47;;;15.60;99.90;;;;;;5034730;28;20324;-84
2022/04/23 09:12:32;;;;;;;4.73;3.50;;;15.20;99.90;;;;;;5032204;28;20237;-83
2022/04/23 09:23:39;;;;;;;4.10;2.97;;;15.10;99.90;;;;;;5033272;28;20182;-84
2022/04/23 09:23:40;;;;;;;5.23;3.60;;;15.20;99.90;;;;;;5049580;28;20194;-84
2022/04/23 09:26:18;;;;;;;5.37;4.07;;;15.50;99.90;;;;;;5037771;28;20749;-83
2022/04/23 09:28:50;;;;;;;5.17;3.43;;;15.70;99.90;;;;;;5037816;28;20213;-83
2022/04/23 09:31:24;;;;;;;2.50;2.30;;;15.60;99.90;;;;;;5037960;28;20323;-81
2022/04/23 09:33:55;;;;;;;4.67;3.03;;;15.30;99.90;;;;;;5039324;28;20236;-84
2022/04/23 09:36:57;;;;;;;4.67;3.63;;;15.30;99.90;;;;;;5029406;28;20355;-85
2022/04/23 09:39:34;;;;;;;4.40;3.70;;;15.80;99.90;;;;;;5052841;28;20213;-84
2022/04/23 09:42:18;;;;;;;3.17;2.80;;;15.50;99.90;;;;;;5044526;28;20555;-82
2022/04/23 09:44:48;;;;;;;4.17;2.67;;;15.50;99.90;;;;;;5037099;28;20245;-82
2022/04/23 09:47:32;;;;;;;8.07;3.90;;;15.40;99.90;;;;;;5054765;28;20199;-82
2022/04/23 09:50:03;;;;;;;2.63;2.13;;;15.60;99.90;;;;;;5051398;28;20222;-83
2022/04/23 09:52:34;;;;;;;5.67;3.87;;;15.40;99.90;;;;;;5035994;28;20675;-83
2022/04/23 09:55:08;;;;;;;3.37;2.47;;;15.60;99.90;;;;;;5038095;28;20232;-85
2022/04/23 09:57:39;;;;;;;7.77;3.77;;;15.50;99.90;;;;;;5026845;28;20398;-82
2022/04/23 10:00:11;;;;;;;4.30;3.67;;;15.70;99.90;;;;;;5027634;28;20349;-83
2022/04/23 10:02:45;;;;;;;5.93;3.40;;;15.80;99.90;;;;;;5035894;28;20471;-81
2022/04/23 10:05:18;;;;;;;5.03;2.93;;;15.80;99.90;;;;;;5036776;28;20707;-81
2022/04/23 10:07:51;;;;;;;2.40;1.80;;;15.80;99.90;;;;;;5037456;28;20310;-84
2022/04/23 10:10:26;;;;;;;2.13;1.73;;;16.00;99.90;;;;;;5034271;28;20218;-82
2022/04/23 10:12:58;;;;;;;1.73;1.60;;;15.80;99.90;;;;;;5037046;28;20225;-86
2022/04/23 10:15:30;;;;;;;4.03;2.57;;;15.70;99.90;;;;;;5037135;28;20283;-84
2022/04/23 10:18:02;;;;;;;5.87;3.97;;;16.00;99.90;;;;;;5036335;28;20198;-84
2022/04/23 10:20:33;;;;;;;5.37;3.67;;;15.80;99.90;;;;;;5036419;28;20266;-85
2022/04/23 10:23:08;;;;;;;4.27;3.67;;;16.00;99.90;;;;;;5036693;28;20215;-85
2022/04/23 10:25:49;;;;;;;4.57;1.83;;;16.00;99.90;;;;;;5037070;28;20230;-85
2022/04/23 10:28:20;;;;;;;5.57;4.07;;;16.00;99.90;;;;;;5034543;28;20320;-83
2022/04/23 10:31:12;;;;;;;3.27;2.90;;;16.20;99.90;;;;;;5027533;28;20275;-86
2022/04/23 10:33:52;;;;;;;3.80;3.23;;;16.40;99.90;;;;;;5050533;28;20218;-87
2022/04/23 10:36:23;;;;;;;6.00;2.90;;;16.00;99.90;;;;;;5034123;28;20575;-87
2022/04/23 10:39:20;;;;;;;3.53;2.37;;;15.90;99.90;;;;;;5035997;28;20324;-85
2022/04/23 10:41:52;;;;;;;3.20;2.73;;;15.80;99.90;;;;;;5051739;28;20219;-85
2022/04/23 10:44:29;;;;;;;4.97;3.73;;;15.80;99.90;;;;;;5035550;28;20607;-85
2022/04/23 10:47:10;;;;;;;5.43;3.03;;;16.00;99.90;;;;;;5033092;28;20710;-84
2022/04/23 10:49:40;;;;;;;3.63;2.87;;;16.10;99.90;;;;;;5051008;28;20217;-86
2022/04/23 10:52:34;;;;;;;3.73;3.37;;;15.90;99.90;;;;;;5038344;28;20288;-88
2022/04/23 10:55:06;;;;;;;5.57;2.97;;;15.90;99.90;;;;;;5035315;28;20226;-87
2022/04/23 10:57:40;;;;;;;3.00;2.17;;;16.00;99.90;;;;;;5032341;28;20222;-83
2022/04/23 11:00:16;;;;;;;2.50;2.30;;;16.00;99.90;;;;;;5037556;28;21728;-80
2022/04/23 11:02:46;;;;;;;5.23;3.30;;;16.10;99.90;;;;;;5035836;28;20263;-81
2022/04/23 11:13:53;;;;;;;3.60;3.07;;;16.20;99.90;;;;;;5036546;28;20751;-83
2022/04/23 11:16:20;;;;;;;4.67;3.27;;;16.30;99.90;;;;;;5036495;28;20222;-83
2022/04/23 11:18:52;;;;;;;4.17;3.27;;;16.10;99.90;;;;;;5051753;28;20225;-83
2022/04/23 11:21:29;;;;;;;4.13;3.53;;;16.60;99.90;;;;;;5053025;28;20222;-85
2022/04/23 11:23:57;;;;;;;6.53;5.37;;;16.70;99.90;;;;;;5033763;28;21225;-84
2022/04/23 11:26:39;;;;;;;5.70;3.23;;;16.70;99.90;;;;;;5036503;28;20227;-83
2022/04/23 11:29:05;;;;;;;3.77;2.77;;;16.30;99.90;;;;;;5035390;28;20341;-85
2022/04/23 11:31:31;;;;;;;3.53;2.80;;;16.00;99.90;;;;;;5037409;28;20213;-84
2022/04/23 11:33:59;;;;;;;5.37;3.63;;;15.90;99.90;;;;;;5052404;28;20261;-82
2022/04/23 11:36:33;;;;;;;7.10;3.07;;;16.20;99.90;;;;;;5034761;28;20658;-85
2022/04/23 11:39:03;;;;;;;7.57;3.87;;;16.10;99.90;;;;;;5034966;28;20213;-84
2022/04/23 11:41:39;;;;;;;4.90;3.00;;;16.20;99.90;;;;;;5035774;28;20252;-82
2022/04/23 11:44:14;;;;;;;5.10;3.77;;;16.20;99.90;;;;;;5037310;28;20265;-81
2022/04/23 11:46:43;;;;;;;3.13;2.83;;;16.20;99.90;;;;;;5036300;28;20232;-84
2022/04/23 11:49:09;;;;;;;2.80;2.10;;;16.50;99.90;;;;;;5037081;28;20218;-82
2022/04/23 11:51:39;;;;;;;4.20;3.20;;;16.40;99.90;;;;;;5034463;28;20241;-82
2022/04/23 11:54:05;;;;;;;3.50;2.80;;;16.30;99.90;;;;;;5049915;28;20190;-85
2022/04/23 11:56:32;;;;;;;3.33;2.80;;;16.20;99.90;;;;;;5038023;28;20190;-84
2022/04/23 11:59:04;;;;;;;3.77;2.73;;;16.20;99.90;;;;;;5042442;28;20218;-82
2022/04/23 12:01:30;;;;;;;3.10;2.13;;;16.20;99.90;;;;;;5035886;28;20268;-83
2022/04/23 12:03:58;;;;;;;2.00;1.90;;;16.10;99.90;;;;;;5033819;28;20230;-82
2022/04/23 12:06:25;;;;;;;2.40;2.20;;;16.30;99.90;;;;;;5053082;28;20218;-83
2022/04/23 12:08:51;;;;;;;17.53;2.07;;;16.20;99.90;;;;;;5049932;28;20565;-85
2022/04/23 12:11:27;;;;;;;2.33;2.10;;;16.20;99.90;;;;;;5052788;28;20241;-82
2022/04/23 12:13:53;;;;;;;2.93;2.67;;;16.50;99.90;;;;;;5032323;28;20328;-82
2022/04/23 12:16:41;;;;;;;2.97;2.37;;;16.40;99.90;;;;;;5051246;28;20246;-83
2022/04/23 12:19:09;;;;;;;3.53;2.77;;;16.50;99.90;;;;;;5036518;28;20709;-83
2022/04/23 12:21:36;;;;;;;2.37;2.17;;;16.30;99.90;;;;;;5034745;28;20352;-81
2022/04/23 12:24:03;;;;;;;2.13;1.93;;;16.60;99.90;;;;;;5026599;28;20218;-85
2022/04/23 12:26:31;;;;;;;2.40;2.20;;;16.50;99.90;;;;;;5026253;28;20232;-83
2022/04/23 12:42:31;;;;;;;3.13;2.73;;;16.40;99.90;;;;;;5045111;28;20233;-82
2022/04/23 12:44:57;;;;;;;2.00;1.60;;;16.70;99.90;;;;;;5032805;28;20234;-82
2022/04/23 12:47:34;;;;;;;3.03;2.43;;;16.70;99.90;;;;;;5032377;28;21071;-82
2022/04/23 12:50:07;;;;;;;3.33;2.70;;;16.80;99.90;;;;;;5034127;28;20221;-83
2022/04/23 12:52:45;;;;;;;2.83;2.57;;;16.60;99.90;;;;;;5035578;28;20556;-86
2022/04/23 12:55:30;;;;;;;3.80;2.53;;;16.60;99.90;;;;;;5032227;28;20708;-85
2022/04/23 12:58:02;;;;;;;3.97;2.50;;;16.80;99.90;;;;;;5032751;28;20256;-82
2022/04/23 13:00:29;;;;;;;2.33;2.10;;;16.60;99.90;;;;;;5034869;28;20229;-85
2022/04/23 13:02:58;;;;;;;3.33;2.27;;;16.80;99.90;;;;;;5032831;28;20196;-82
2022/04/23 13:05:25;;;;;;;5.13;2.90;;;16.70;99.90;;;;;;5034425;28;20642;-82
2022/04/23 13:10:37;;;;;;;3.47;2.20;;;16.80;99.90;;;;;;5046850;28;20222;-84
2022/04/23 13:13:05;;;;;;;3.27;2.37;;;16.80;99.90;;;;;;5032079;28;20689;-82
2022/04/23 13:15:31;;;;;;;3.77;2.80;;;16.80;99.90;;;;;;5041090;28;20218;-84
2022/04/23 13:17:57;;;;;;;4.30;3.10;;;17.00;99.90;;;;;;5033166;28;20186;-86
2022/04/23 13:20:23;;;;;;;4.37;2.73;;;17.10;99.90;;;;;;5032944;28;20198;-81
2022/04/23 13:22:49;;;;;;;3.00;2.60;;;16.70;99.90;;;;;;5034168;28;20241;-85
2022/04/23 13:25:18;;;;;;;6.33;2.77;;;16.80;99.90;;;;;;5032374;28;20387;-85
2022/04/23 13:27:44;;;;;;;4.30;3.40;;;16.90;99.90;;;;;;5047846;28;20222;-82
2022/04/23 13:30:11;;;;;;;3.40;2.40;;;16.90;99.90;;;;;;5032502;28;20273;-83
2022/04/23 13:32:39;;;;;;;3.33;2.33;;;16.80;99.90;;;;;;5033093;28;20201;-85
2022/04/23 13:35:10;;;;;;;3.37;2.40;;;16.70;99.90;;;;;;5050307;28;20753;-84
2022/04/23 13:37:36;;;;;;;2.17;1.80;;;16.80;99.90;;;;;;5033530;28;20691;-85